createdAt,value
2022-11-20T00:03:08.173Z,29.90
2022-11-20T00:08:10.342Z,29.80
2022-11-20T00:13:12.435Z,29.80
2022-11-20T00:23:17.018Z,29.70
2022-11-20T00:28:19.061Z,29.90
2022-11-20T00:33:21.082Z,29.80
2022-11-20T00:38:23.082Z,29.90
2022-11-20T00:43:25.709Z,29.80
2022-11-20T00:48:28.175Z,29.80
2022-11-20T00:58:35.841Z,29.80
2022-11-20T01:03:41.021Z,29.90
2022-11-20T01:08:44.463Z,29.90
2022-11-20T01:13:48.130Z,29.90
2022-11-20T01:18:52.365Z,29.90
2022-11-20T01:23:54.757Z,30.00
2022-11-20T01:28:57.810Z,29.90
2022-11-20T01:34:06.197Z,30.00
2022-11-20T01:39:29.170Z,29.70
2022-11-20T01:44:50.190Z,29.90
2022-11-20T01:50:07.454Z,30.00
2022-11-20T01:55:35.054Z,29.80
2022-11-20T02:00:37.226Z,30.00
2022-11-20T02:06:14.032Z,29.90
2022-11-20T02:11:16.120Z,29.90
2022-11-20T02:16:23.504Z,30.00
2022-11-20T02:21:37.485Z,30.00
2022-11-20T02:26:46.144Z,30.00
2022-11-20T02:31:48.477Z,30.00
2022-11-20T02:36:52.875Z,30.10
2022-11-20T02:41:56.749Z,30.00
2022-11-20T02:47:00.120Z,30.10
2022-11-20T02:52:02.183Z,30.00
2022-11-20T02:57:04.232Z,30.10
2022-11-20T03:02:06.331Z,30.00
2022-11-20T03:07:09.831Z,30.00
2022-11-20T03:17:14.377Z,30.50
2022-11-20T03:22:16.462Z,30.40
2022-11-20T03:27:18.609Z,30.40
2022-11-20T03:37:23.478Z,30.50
2022-11-20T03:42:44.505Z,30.40
2022-11-20T03:47:47.035Z,30.50
2022-11-20T03:57:51.610Z,30.60
2022-11-20T04:02:53.723Z,30.30
2022-11-20T04:07:55.734Z,30.50
2022-11-20T04:12:57.794Z,30.50
2022-11-20T04:17:59.840Z,30.50
2022-11-20T04:23:01.952Z,30.50
2022-11-20T04:28:04.180Z,30.50
2022-11-20T04:33:06.213Z,30.50
2022-11-20T04:38:08.419Z,30.50
2022-11-20T04:48:12.928Z,30.50
2022-11-20T04:53:15.091Z,30.60
2022-11-20T04:58:17.483Z,30.50
2022-11-20T05:03:19.588Z,30.60
2022-11-20T05:08:21.705Z,30.50
2022-11-20T05:13:23.790Z,30.50
2022-11-20T05:18:25.979Z,30.50
2022-11-20T05:23:29.871Z,30.60
2022-11-20T05:28:33.017Z,30.60
2022-11-20T05:33:36.779Z,30.60
2022-11-20T05:38:39.188Z,30.60
2022-11-20T05:43:43.558Z,30.60
2022-11-20T05:53:48.965Z,30.70
2022-11-20T05:58:51.248Z,31.50
2022-11-20T06:03:54.963Z,30.60
2022-11-20T06:08:59.766Z,30.60
2022-11-20T06:19:04.274Z,30.60
2022-11-20T06:24:06.717Z,30.60
2022-11-20T06:29:08.799Z,30.60
2022-11-20T06:34:10.929Z,30.60
2022-11-20T06:39:13.011Z,30.70
2022-11-20T06:44:15.109Z,30.70
2022-11-20T06:49:17.197Z,30.70
2022-11-20T06:54:19.255Z,30.70
2022-11-20T06:59:21.505Z,30.70
2022-11-20T07:04:23.844Z,30.80
2022-11-20T07:09:26.039Z,30.70
2022-11-20T07:14:28.199Z,30.60
2022-11-20T07:24:32.636Z,30.80
2022-11-20T07:34:37.112Z,30.80
2022-11-20T07:39:39.553Z,31.00
2022-11-20T07:59:48.769Z,31.10
2022-11-20T08:04:50.946Z,31.10
2022-11-20T08:14:57.577Z,31.10
2022-11-20T08:19:59.649Z,31.20
2022-11-20T08:30:05.459Z,31.20
2022-11-20T08:35:07.850Z,31.20
2022-11-20T08:40:14.761Z,30.90
2022-11-20T08:45:20.786Z,31.20
2022-11-20T08:50:22.828Z,31.20
2022-11-20T08:55:24.849Z,31.30
2022-11-20T09:00:26.956Z,31.30
2022-11-20T09:05:29.996Z,31.30
2022-11-20T09:10:33.037Z,31.30
2022-11-20T09:15:35.184Z,31.30
2022-11-20T09:20:37.801Z,31.40
2022-11-20T09:25:40.003Z,31.30
2022-11-20T09:41:07.487Z,31.60
2022-11-20T09:46:38.560Z,31.50
2022-11-20T09:52:07.048Z,32.10
2022-11-20T09:57:14.483Z,31.20
2022-11-20T10:02:19.227Z,31.20
2022-11-20T10:07:33.001Z,31.30
2022-11-20T10:12:58.530Z,31.30
2022-11-20T10:18:10.226Z,31.40
2022-11-20T10:23:50.962Z,31.20
2022-11-20T10:29:09.107Z,31.00
2022-11-20T10:34:40.463Z,30.90
2022-11-20T10:40:07.007Z,31.40
2022-11-20T10:45:23.104Z,31.60
2022-11-20T10:50:25.600Z,31.40
2022-11-20T10:55:49.141Z,32.30
2022-11-20T11:00:51.371Z,32.50
2022-11-20T11:06:17.007Z,33.30
2022-11-20T11:11:28.659Z,31.20
2022-11-20T11:16:30.734Z,31.30
2022-11-20T11:21:32.925Z,30.90
2022-11-20T11:26:34.968Z,31.40
2022-11-20T11:31:37.010Z,30.50
2022-11-20T11:36:39.479Z,31.30
2022-11-20T11:47:03.423Z,31.30
2022-11-20T11:52:17.182Z,31.30
2022-11-20T11:57:30.617Z,31.20
2022-11-20T12:02:45.241Z,31.00
2022-11-20T12:07:50.468Z,30.70
2022-11-20T12:13:09.111Z,29.80
2022-11-20T12:18:16.893Z,29.10
2022-11-20T12:23:40.437Z,28.40
2022-11-20T12:29:24.269Z,25.90
2022-11-20T12:34:51.372Z,25.80
2022-11-20T12:39:57.652Z,25.50
2022-11-20T12:45:33.744Z,25.50
2022-11-20T12:51:13.370Z,25.40
2022-11-20T12:56:32.880Z,25.80
2022-11-20T13:01:59.631Z,26.30
2022-11-20T13:07:09.179Z,26.70
2022-11-20T13:12:18.856Z,26.90
2022-11-20T13:17:29.770Z,26.90
2022-11-20T13:22:49.782Z,26.80
2022-11-20T13:27:52.179Z,26.60
2022-11-20T13:32:57.965Z,26.70
2022-11-20T13:38:06.515Z,26.60
2022-11-20T13:43:27.618Z,26.40
2022-11-20T13:48:42.195Z,26.60
2022-11-20T13:53:50.063Z,26.50
2022-11-20T13:59:14.744Z,26.20
2022-11-20T14:04:24.924Z,25.10
2022-11-20T14:09:33.438Z,24.10
2022-11-20T14:14:37.251Z,23.70
2022-11-20T14:19:42.254Z,23.50
2022-11-20T14:24:44.334Z,22.50
2022-11-20T14:29:49.989Z,22.30
2022-11-20T14:34:52.214Z,22.00
2022-11-20T14:39:56.830Z,22.10
2022-11-20T14:45:00.746Z,21.60
2022-11-20T14:50:07.381Z,22.30
2022-11-20T14:55:25.656Z,22.30
2022-11-20T15:00:29.218Z,22.60
2022-11-20T15:05:49.266Z,22.70
2022-11-20T15:10:52.660Z,23.00
2022-11-20T15:15:56.999Z,23.20
2022-11-20T15:21:04.157Z,23.20
2022-11-20T15:26:07.456Z,23.40
2022-11-20T15:31:18.087Z,23.50
2022-11-20T15:36:20.123Z,23.60
2022-11-20T15:41:22.136Z,23.40
2022-11-20T15:46:28.533Z,23.60
2022-11-20T15:51:34.219Z,23.70
2022-11-20T15:56:36.375Z,23.60
2022-11-20T16:01:38.710Z,23.70
2022-11-20T16:06:41.055Z,23.60
2022-11-20T16:11:43.156Z,23.70
2022-11-20T16:16:45.298Z,23.70
2022-11-20T16:21:47.486Z,23.90
2022-11-20T16:26:49.622Z,23.70
2022-11-20T16:31:51.800Z,23.80
2022-11-20T16:36:53.924Z,23.70
2022-11-20T16:41:56.108Z,23.70
2022-11-20T16:46:58.459Z,23.80
2022-11-20T16:52:00.584Z,23.80
2022-11-20T17:02:05.227Z,24.20
2022-11-20T17:07:08.288Z,24.00
2022-11-20T17:12:10.668Z,24.30
2022-11-20T17:17:12.808Z,24.40
2022-11-20T17:22:14.821Z,24.40
2022-11-20T17:27:17.052Z,24.50
2022-11-20T17:32:19.107Z,24.40
2022-11-20T17:37:21.167Z,24.50
2022-11-20T17:42:29.809Z,24.60
2022-11-20T17:47:32.032Z,24.80
2022-11-20T17:52:34.212Z,24.80
2022-11-20T17:57:56.582Z,24.90
2022-11-20T18:02:59.058Z,25.10
2022-11-20T18:08:01.190Z,25.40
2022-11-20T18:13:03.450Z,25.70
2022-11-20T18:18:05.634Z,25.60
2022-11-20T18:23:07.820Z,26.00
2022-11-20T18:28:09.951Z,26.30
2022-11-20T18:33:11.985Z,26.10
2022-11-20T18:38:14.132Z,26.30
2022-11-20T18:43:35.031Z,26.10
2022-11-20T18:53:45.862Z,26.40
2022-11-20T19:03:52.205Z,26.70
2022-11-20T19:08:54.250Z,27.00
2022-11-20T19:13:56.569Z,27.30
2022-11-20T19:19:06.640Z,27.10
2022-11-20T19:24:09.188Z,27.60
2022-11-20T19:29:15.807Z,27.60
2022-11-20T19:39:20.454Z,27.30
2022-11-20T19:44:22.584Z,27.70
2022-11-20T19:49:25.033Z,27.80
2022-11-20T19:54:27.547Z,27.80
2022-11-20T19:59:29.579Z,27.60
2022-11-20T20:04:31.761Z,27.90
2022-11-20T20:09:34.187Z,28.00
2022-11-20T20:14:36.271Z,27.90
2022-11-20T20:19:38.306Z,27.80
2022-11-20T20:24:40.343Z,27.90
2022-11-20T20:29:42.431Z,27.90
2022-11-20T20:34:44.522Z,27.90
2022-11-20T20:39:46.619Z,28.00
2022-11-20T20:45:07.030Z,27.80
2022-11-20T20:50:11.588Z,28.00
2022-11-20T20:55:14.358Z,28.80
2022-11-20T21:00:16.705Z,28.90
2022-11-20T21:05:18.876Z,29.00
2022-11-20T21:15:26.321Z,29.50
2022-11-20T21:20:47.196Z,29.70
2022-11-20T21:25:49.225Z,29.80
2022-11-20T21:30:51.344Z,30.00
2022-11-20T21:35:53.426Z,29.70
2022-11-20T21:40:58.536Z,30.20
2022-11-20T21:46:08.881Z,30.00
2022-11-20T21:51:22.481Z,30.00
2022-11-20T21:56:26.100Z,30.20
2022-11-20T22:01:30.611Z,30.20
2022-11-20T22:06:34.243Z,29.40
2022-11-20T22:26:44.432Z,28.90
2022-11-20T22:31:46.759Z,28.90
2022-11-20T22:36:48.891Z,28.70
2022-11-20T22:41:50.996Z,28.70
2022-11-20T22:46:53.032Z,28.40
2022-11-20T22:51:55.094Z,28.30
2022-11-20T23:01:59.779Z,28.30
2022-11-20T23:07:01.848Z,28.30
2022-11-20T23:12:04.105Z,28.20
2022-11-20T23:17:06.153Z,28.20
2022-11-20T23:27:10.557Z,28.00
2022-11-20T23:32:12.570Z,28.00
2022-11-20T23:37:14.594Z,27.90
2022-11-20T23:42:16.686Z,27.70
2022-11-20T23:47:18.724Z,27.60
2022-11-20T23:52:21.982Z,27.40
2022-11-20T23:57:24.009Z,27.30
